DLH6CK EDDH-EDDF
Flight info
| Callsign | DLH6CK |
|---|---|
| Flight time | 0h 52m |
| Altitude | 30000 |
| Route | AMLUH2G/33 AMLUH M852 DENIX DCT RIMET/N0462F310 T157 KOKEB/N0422F230 T157 KERAX KERAX5A |
| Aircraft | A319/M-SDE3FGHIRWY/LB1 |
Departure
| Time | 2026-04-16 14:21 |
|---|---|
| Airport | Hamburg Helmut Schmidt Airport (EDDH) |
Arrival
| Time | 2026-04-16 15:13 |
|---|---|
| Airport | Frankfurt Main Airport (EDDF) |
| Time | Latitude | Longitude | Altitude | Speed | Heading |
|---|---|---|---|---|---|
| 2026-04-16 13:53 | 53.63196 | 10.00387 | 51 ft | 0 kts | 85° |
| 2026-04-16 14:13 | 53.63195 | 10.00377 | 51 ft | 4 kts | 85° |
| 2026-04-16 14:14 | 53.63193 | 10.00332 | 51 ft | 4 kts | 85° |
| 2026-04-16 14:14 | 53.63191 | 10.00286 | 51 ft | 4 kts | 85° |
| 2026-04-16 14:14 | 53.63190 | 10.00250 | 51 ft | 4 kts | 134° |
| 2026-04-16 14:14 | 53.63198 | 10.00246 | 51 ft | 4 kts | 175° |
| 2026-04-16 14:15 | 53.63221 | 10.00242 | 48 ft | 1 kts | 175° |
| 2026-04-16 14:18 | 53.63176 | 10.00249 | 48 ft | 15 kts | 175° |
| 2026-04-16 14:18 | 53.63058 | 10.00248 | 51 ft | 17 kts | 195° |
| 2026-04-16 14:18 | 53.62955 | 10.00142 | 50 ft | 18 kts | 209° |
| 2026-04-16 14:18 | 53.62895 | 10.00081 | 51 ft | 7 kts | 212° |
| 2026-04-16 14:19 | 53.62866 | 10.00039 | 51 ft | 1 kts | 231° |
| 2026-04-16 14:19 | 53.62841 | 9.99950 | 52 ft | 6 kts | 242° |
| 2026-04-16 14:19 | 53.62814 | 9.99865 | 52 ft | 9 kts | 243° |
| 2026-04-16 14:19 | 53.62828 | 9.99771 | 53 ft | 10 kts | 324° |
| 2026-04-16 14:20 | 53.62880 | 9.99731 | 52 ft | 0 kts | 334° |
| 2026-04-16 14:20 | 53.62885 | 9.99727 | 53 ft | 1 kts | 334° |
| 2026-04-16 14:20 | 53.62952 | 9.99668 | 52 ft | 43 kts | 333° |
| 2026-04-16 14:20 | 53.63508 | 9.99184 | 53 ft | 132 kts | 332° |
| 2026-04-16 14:21 | 53.64447 | 9.98348 | 549 ft | 157 kts | 329° |
| 2026-04-16 14:21 | 53.65431 | 9.97499 | 1467 ft | 161 kts | 329° |
| 2026-04-16 14:21 | 53.66473 | 9.96608 | 2087 ft | 178 kts | 328° |
| 2026-04-16 14:21 | 53.67641 | 9.95602 | 2552 ft | 200 kts | 329° |
| 2026-04-16 14:22 | 53.68982 | 9.94745 | 3231 ft | 214 kts | 345° |
| 2026-04-16 14:22 | 53.70498 | 9.94669 | 4089 ft | 220 kts | 356° |
| 2026-04-16 14:22 | 53.72051 | 9.94797 | 4777 ft | 230 kts | 8° |
| 2026-04-16 14:22 | 53.73433 | 9.96162 | 4934 ft | 238 kts | 49° |
| 2026-04-16 14:23 | 53.74037 | 9.98771 | 5410 ft | 244 kts | 85° |
| 2026-04-16 14:23 | 53.74126 | 10.01629 | 6445 ft | 245 kts | 94° |
| 2026-04-16 14:23 | 53.73815 | 10.04475 | 7278 ft | 253 kts | 111° |
| 2026-04-16 14:23 | 53.73005 | 10.07246 | 7785 ft | 276 kts | 122° |
| 2026-04-16 14:24 | 53.72019 | 10.10157 | 8480 ft | 292 kts | 122° |
| 2026-04-16 14:24 | 53.71002 | 10.13165 | 9422 ft | 298 kts | 121° |
| 2026-04-16 14:24 | 53.69929 | 10.16194 | 10372 ft | 303 kts | 127° |
| 2026-04-16 14:24 | 53.68490 | 10.18940 | 10827 ft | 324 kts | 141° |
| 2026-04-16 14:25 | 53.66562 | 10.21126 | 11168 ft | 345 kts | 156° |
| 2026-04-16 14:25 | 53.64240 | 10.22504 | 11437 ft | 365 kts | 168° |
| 2026-04-16 14:25 | 53.61707 | 10.23632 | 11690 ft | 387 kts | 168° |
| 2026-04-16 14:25 | 53.59073 | 10.24818 | 12320 ft | 395 kts | 167° |
| 2026-04-16 14:26 | 53.56409 | 10.26033 | 13069 ft | 399 kts | 167° |
| 2026-04-16 14:26 | 53.53716 | 10.27271 | 13816 ft | 404 kts | 167° |
| 2026-04-16 14:26 | 53.50991 | 10.28530 | 14485 ft | 408 kts | 167° |
| 2026-04-16 14:26 | 53.48237 | 10.29797 | 15131 ft | 412 kts | 167° |
| 2026-04-16 14:27 | 53.45494 | 10.31050 | 15761 ft | 417 kts | 168° |
| 2026-04-16 14:27 | 53.42680 | 10.32334 | 16368 ft | 421 kts | 168° |
| 2026-04-16 14:27 | 53.39843 | 10.33625 | 16977 ft | 425 kts | 168° |
| 2026-04-16 14:27 | 53.36969 | 10.34925 | 17545 ft | 429 kts | 168° |
| 2026-04-16 14:28 | 53.34037 | 10.36247 | 18118 ft | 434 kts | 168° |
| 2026-04-16 14:28 | 53.31148 | 10.37542 | 18642 ft | 437 kts | 168° |
| 2026-04-16 14:28 | 53.28196 | 10.38864 | 19103 ft | 441 kts | 168° |
| 2026-04-16 14:28 | 53.25217 | 10.40194 | 19541 ft | 445 kts | 168° |
| 2026-04-16 14:29 | 53.22204 | 10.41535 | 19997 ft | 449 kts | 169° |
| 2026-04-16 14:29 | 53.19176 | 10.42881 | 20446 ft | 452 kts | 169° |
| 2026-04-16 14:29 | 53.16130 | 10.44228 | 20894 ft | 455 kts | 169° |
| 2026-04-16 14:29 | 53.13018 | 10.45140 | 21325 ft | 454 kts | 178° |
| 2026-04-16 14:30 | 53.09873 | 10.45283 | 21740 ft | 452 kts | 187° |
| 2026-04-16 14:30 | 53.06730 | 10.44873 | 22166 ft | 454 kts | 189° |
| 2026-04-16 14:30 | 53.03574 | 10.44427 | 22585 ft | 456 kts | 189° |
| 2026-04-16 14:30 | 53.00395 | 10.43979 | 22991 ft | 460 kts | 189° |
| 2026-04-16 14:31 | 52.97204 | 10.43534 | 23391 ft | 462 kts | 189° |
| 2026-04-16 14:31 | 52.93985 | 10.43092 | 23771 ft | 465 kts | 189° |
| 2026-04-16 14:31 | 52.90751 | 10.42648 | 24096 ft | 468 kts | 189° |
| 2026-04-16 14:31 | 52.87499 | 10.42205 | 24424 ft | 470 kts | 189° |
| 2026-04-16 14:32 | 52.84235 | 10.41763 | 24756 ft | 472 kts | 189° |
| 2026-04-16 14:32 | 52.80961 | 10.41322 | 25083 ft | 474 kts | 189° |
| 2026-04-16 14:32 | 52.77666 | 10.40875 | 25388 ft | 476 kts | 189° |
| 2026-04-16 14:32 | 52.74360 | 10.40424 | 25688 ft | 478 kts | 189° |
| 2026-04-16 14:33 | 52.71041 | 10.39972 | 25994 ft | 480 kts | 189° |
| 2026-04-16 14:33 | 52.67711 | 10.39522 | 26300 ft | 481 kts | 189° |
| 2026-04-16 14:33 | 52.64362 | 10.39073 | 26655 ft | 482 kts | 189° |
| 2026-04-16 14:33 | 52.61030 | 10.38628 | 27111 ft | 480 kts | 189° |
| 2026-04-16 14:34 | 52.57706 | 10.38188 | 27573 ft | 479 kts | 189° |
| 2026-04-16 14:34 | 52.54386 | 10.37750 | 28005 ft | 478 kts | 189° |
| 2026-04-16 14:34 | 52.51076 | 10.37312 | 28448 ft | 477 kts | 189° |
| 2026-04-16 14:34 | 52.47811 | 10.36876 | 28912 ft | 476 kts | 190° |
| 2026-04-16 14:35 | 52.44517 | 10.36429 | 29397 ft | 475 kts | 190° |
| 2026-04-16 14:35 | 52.41229 | 10.35981 | 29888 ft | 474 kts | 190° |
| 2026-04-16 14:35 | 52.37942 | 10.35538 | 30179 ft | 473 kts | 190° |
| 2026-04-16 14:35 | 52.34669 | 10.35100 | 30222 ft | 472 kts | 190° |
| 2026-04-16 14:36 | 52.28119 | 10.34233 | 30220 ft | 472 kts | 191° |
| 2026-04-16 14:36 | 52.21563 | 10.33366 | 30217 ft | 473 kts | 191° |
| 2026-04-16 14:37 | 52.15006 | 10.32505 | 30215 ft | 473 kts | 190° |
| 2026-04-16 14:37 | 52.08452 | 10.31656 | 30214 ft | 473 kts | 190° |
| 2026-04-16 14:38 | 52.01899 | 10.30801 | 30194 ft | 473 kts | 191° |
| 2026-04-16 14:38 | 51.95339 | 10.29931 | 30198 ft | 472 kts | 191° |
| 2026-04-16 14:39 | 51.88793 | 10.29061 | 30208 ft | 472 kts | 191° |
| 2026-04-16 14:39 | 51.82236 | 10.28211 | 30184 ft | 472 kts | 191° |
| 2026-04-16 14:40 | 51.75686 | 10.27362 | 30200 ft | 473 kts | 192° |
| 2026-04-16 14:40 | 51.69167 | 10.26519 | 30210 ft | 473 kts | 191° |
| 2026-04-16 14:41 | 51.62616 | 10.25676 | 30219 ft | 472 kts | 191° |
| 2026-04-16 14:41 | 51.56064 | 10.24838 | 30196 ft | 472 kts | 191° |
| 2026-04-16 14:42 | 51.49514 | 10.23993 | 30200 ft | 472 kts | 191° |
| 2026-04-16 14:42 | 51.42963 | 10.23154 | 30207 ft | 472 kts | 191° |
| 2026-04-16 14:43 | 51.36409 | 10.22326 | 30207 ft | 472 kts | 191° |
| 2026-04-16 14:43 | 51.29833 | 10.21655 | 30220 ft | 476 kts | 189° |
| 2026-04-16 14:44 | 51.23193 | 10.21541 | 30229 ft | 478 kts | 186° |
| 2026-04-16 14:44 | 51.16534 | 10.21596 | 30227 ft | 478 kts | 187° |
| 2026-04-16 14:45 | 51.09887 | 10.21524 | 30211 ft | 477 kts | 187° |
| 2026-04-16 14:45 | 51.03263 | 10.21366 | 30235 ft | 475 kts | 187° |
| 2026-04-16 14:46 | 50.96655 | 10.21218 | 30239 ft | 475 kts | 187° |
| 2026-04-16 14:46 | 50.90059 | 10.21003 | 30232 ft | 470 kts | 192° |
| 2026-04-16 14:47 | 50.83841 | 10.18619 | 30213 ft | 453 kts | 210° |
| 2026-04-16 14:47 | 50.78694 | 10.13394 | 30218 ft | 437 kts | 228° |
| 2026-04-16 14:48 | 50.74990 | 10.06024 | 30049 ft | 423 kts | 244° |
| 2026-04-16 14:48 | 50.73640 | 10.01932 | 28887 ft | 421 kts | 247° |
| 2026-04-16 14:48 | 50.72315 | 9.97776 | 27482 ft | 427 kts | 247° |
| 2026-04-16 14:49 | 50.70975 | 9.93549 | 26045 ft | 434 kts | 247° |
| 2026-04-16 14:49 | 50.69616 | 9.89268 | 24592 ft | 441 kts | 247° |
| 2026-04-16 14:49 | 50.68235 | 9.84946 | 23490 ft | 441 kts | 246° |
| 2026-04-16 14:49 | 50.66853 | 9.80660 | 22428 ft | 436 kts | 246° |
| 2026-04-16 14:50 | 50.65444 | 9.76449 | 21450 ft | 433 kts | 243° |
| 2026-04-16 14:50 | 50.63722 | 9.72572 | 20553 ft | 432 kts | 234° |
| 2026-04-16 14:50 | 50.61658 | 9.69147 | 19684 ft | 431 kts | 226° |
| 2026-04-16 14:50 | 50.59301 | 9.66236 | 18863 ft | 431 kts | 217° |
| 2026-04-16 14:51 | 50.56706 | 9.63892 | 18011 ft | 430 kts | 209° |
| 2026-04-16 14:51 | 50.53987 | 9.61989 | 17141 ft | 425 kts | 210° |
| 2026-04-16 14:51 | 50.51509 | 9.59562 | 16370 ft | 415 kts | 220° |
| 2026-04-16 14:51 | 50.49392 | 9.56561 | 15638 ft | 406 kts | 229° |
| 2026-04-16 14:53 | 50.42082 | 9.29585 | 10461 ft | 374 kts | 254° |
| 2026-04-16 14:53 | 50.41343 | 9.25725 | 9967 ft | 362 kts | 253° |
| 2026-04-16 14:54 | 50.40606 | 9.22095 | 9808 ft | 335 kts | 251° |
| 2026-04-16 14:54 | 50.39863 | 9.18810 | 9661 ft | 306 kts | 250° |
| 2026-04-16 14:54 | 50.39150 | 9.15814 | 9517 ft | 282 kts | 250° |
| 2026-04-16 14:54 | 50.38472 | 9.12997 | 9225 ft | 273 kts | 250° |
| 2026-04-16 14:55 | 50.37813 | 9.10237 | 8873 ft | 269 kts | 250° |
| 2026-04-16 14:55 | 50.37166 | 9.07500 | 8479 ft | 267 kts | 250° |
| 2026-04-16 14:55 | 50.36526 | 9.04773 | 8060 ft | 266 kts | 250° |
| 2026-04-16 14:55 | 50.35892 | 9.02063 | 7642 ft | 265 kts | 250° |
| 2026-04-16 14:56 | 50.35260 | 8.99365 | 7250 ft | 263 kts | 250° |
| 2026-04-16 14:56 | 50.34630 | 8.96681 | 6838 ft | 262 kts | 250° |
| 2026-04-16 14:56 | 50.34007 | 8.94009 | 6422 ft | 261 kts | 250° |
| 2026-04-16 14:56 | 50.33387 | 8.91347 | 5969 ft | 260 kts | 250° |
| 2026-04-16 14:57 | 50.32665 | 8.88765 | 5512 ft | 260 kts | 239° |
| 2026-04-16 14:57 | 50.31499 | 8.86627 | 5097 ft | 260 kts | 221° |
| 2026-04-16 14:57 | 50.29950 | 8.85188 | 5003 ft | 262 kts | 202° |
| 2026-04-16 14:57 | 50.28153 | 8.84614 | 5010 ft | 266 kts | 182° |
| 2026-04-16 14:58 | 50.26346 | 8.85083 | 5007 ft | 270 kts | 160° |
| 2026-04-16 14:58 | 50.23591 | 8.88900 | 5010 ft | 273 kts | 117° |
| 2026-04-16 14:58 | 50.23071 | 8.91748 | 5009 ft | 274 kts | 94° |
| 2026-04-16 14:59 | 50.23263 | 8.94695 | 5009 ft | 274 kts | 72° |
| 2026-04-16 14:59 | 50.23956 | 8.97461 | 5007 ft | 274 kts | 68° |
| 2026-04-16 14:59 | 50.24630 | 9.00255 | 5006 ft | 275 kts | 69° |
| 2026-04-16 14:59 | 50.25275 | 9.03063 | 5010 ft | 275 kts | 70° |
| 2026-04-16 15:00 | 50.25912 | 9.05879 | 5011 ft | 275 kts | 70° |
| 2026-04-16 15:00 | 50.26549 | 9.08697 | 5013 ft | 275 kts | 70° |
| 2026-04-16 15:00 | 50.27189 | 9.11517 | 5012 ft | 275 kts | 70° |
| 2026-04-16 15:00 | 50.27831 | 9.14329 | 5012 ft | 275 kts | 70° |
| 2026-04-16 15:01 | 50.28479 | 9.17142 | 5012 ft | 275 kts | 69° |
| 2026-04-16 15:01 | 50.29130 | 9.19952 | 5014 ft | 275 kts | 70° |
| 2026-04-16 15:01 | 50.29781 | 9.22772 | 5016 ft | 276 kts | 70° |
| 2026-04-16 15:01 | 50.30360 | 9.25631 | 5008 ft | 277 kts | 81° |
| 2026-04-16 15:02 | 50.30216 | 9.28606 | 5014 ft | 276 kts | 110° |
| 2026-04-16 15:02 | 50.29210 | 9.31107 | 5021 ft | 273 kts | 139° |
| 2026-04-16 15:02 | 50.27592 | 9.32559 | 5016 ft | 268 kts | 166° |
| 2026-04-16 15:02 | 50.25754 | 9.32994 | 5014 ft | 267 kts | 181° |
| 2026-04-16 15:03 | 50.23904 | 9.32836 | 5016 ft | 266 kts | 189° |
| 2026-04-16 15:03 | 50.22201 | 9.31872 | 5011 ft | 261 kts | 217° |
| 2026-04-16 15:03 | 50.21041 | 9.29790 | 5013 ft | 259 kts | 244° |
| 2026-04-16 15:03 | 50.20484 | 9.27129 | 5019 ft | 259 kts | 261° |
| 2026-04-16 15:04 | 50.20218 | 9.24353 | 5017 ft | 259 kts | 263° |
| 2026-04-16 15:04 | 50.19983 | 9.21566 | 5015 ft | 259 kts | 263° |
| 2026-04-16 15:04 | 50.19753 | 9.18772 | 5008 ft | 260 kts | 263° |
| 2026-04-16 15:04 | 50.19373 | 9.16019 | 5012 ft | 261 kts | 252° |
| 2026-04-16 15:05 | 50.18742 | 9.13355 | 5012 ft | 261 kts | 249° |
| 2026-04-16 15:05 | 50.18099 | 9.10711 | 5007 ft | 261 kts | 250° |
| 2026-04-16 15:05 | 50.17472 | 9.08055 | 5012 ft | 260 kts | 250° |
| 2026-04-16 15:05 | 50.16876 | 9.05491 | 5005 ft | 242 kts | 250° |
| 2026-04-16 15:06 | 50.16319 | 9.03096 | 5003 ft | 231 kts | 250° |
| 2026-04-16 15:06 | 50.15772 | 9.00755 | 5009 ft | 230 kts | 250° |
| 2026-04-16 15:06 | 50.15226 | 8.98417 | 5009 ft | 230 kts | 250° |
| 2026-04-16 15:06 | 50.14863 | 8.96867 | 5006 ft | 230 kts | 250° |
| 2026-04-16 15:07 | 50.14315 | 8.94524 | 5009 ft | 230 kts | 250° |
| 2026-04-16 15:07 | 50.13767 | 8.92189 | 5005 ft | 229 kts | 250° |
| 2026-04-16 15:07 | 50.13220 | 8.89857 | 5009 ft | 229 kts | 250° |
| 2026-04-16 15:07 | 50.12673 | 8.87530 | 5006 ft | 229 kts | 250° |
| 2026-04-16 15:08 | 50.12124 | 8.85195 | 4850 ft | 229 kts | 250° |
| 2026-04-16 15:08 | 50.11578 | 8.82873 | 4556 ft | 228 kts | 250° |
| 2026-04-16 15:08 | 50.11032 | 8.80560 | 4242 ft | 227 kts | 250° |
| 2026-04-16 15:08 | 50.10488 | 8.78251 | 3910 ft | 226 kts | 250° |
| 2026-04-16 15:09 | 50.09955 | 8.75994 | 3590 ft | 218 kts | 250° |
| 2026-04-16 15:09 | 50.09450 | 8.73859 | 3294 ft | 202 kts | 250° |
| 2026-04-16 15:09 | 50.08985 | 8.71896 | 3057 ft | 183 kts | 249° |
| 2026-04-16 15:09 | 50.08563 | 8.70112 | 2774 ft | 167 kts | 249° |
| 2026-04-16 15:10 | 50.08176 | 8.68479 | 2543 ft | 155 kts | 250° |
| 2026-04-16 15:10 | 50.07813 | 8.66950 | 2340 ft | 143 kts | 249° |
| 2026-04-16 15:10 | 50.07477 | 8.65535 | 2139 ft | 136 kts | 249° |
| 2026-04-16 15:10 | 50.07153 | 8.64172 | 1946 ft | 134 kts | 249° |
| 2026-04-16 15:11 | 50.06833 | 8.62823 | 1748 ft | 131 kts | 249° |
| 2026-04-16 15:11 | 50.06515 | 8.61488 | 1565 ft | 132 kts | 250° |
| 2026-04-16 15:11 | 50.06196 | 8.60146 | 1374 ft | 131 kts | 249° |
| 2026-04-16 15:11 | 50.05876 | 8.58803 | 1162 ft | 133 kts | 250° |
| 2026-04-16 15:12 | 50.05549 | 8.57433 | 948 ft | 136 kts | 251° |
| 2026-04-16 15:12 | 50.05222 | 8.56056 | 741 ft | 139 kts | 252° |
| 2026-04-16 15:12 | 50.04885 | 8.54634 | 557 ft | 142 kts | 251° |
| 2026-04-16 15:12 | 50.04541 | 8.53205 | 383 ft | 141 kts | 252° |
| 2026-04-16 15:13 | 50.04229 | 8.51877 | 346 ft | 106 kts | 250° |
| 2026-04-16 15:13 | 50.04073 | 8.51250 | 348 ft | 18 kts | 246° |
| 2026-04-16 15:13 | 50.04008 | 8.51074 | 350 ft | 35 kts | 233° |
| 2026-04-16 15:13 | 50.03841 | 8.50845 | 350 ft | 25 kts | 206° |
| 2026-04-16 15:14 | 50.03799 | 8.50995 | 354 ft | 20 kts | 70° |
| 2026-04-16 15:14 | 50.03847 | 8.51201 | 346 ft | 20 kts | 70° |
| 2026-04-16 15:14 | 50.03898 | 8.51412 | 352 ft | 21 kts | 70° |
| 2026-04-16 15:14 | 50.03951 | 8.51641 | 346 ft | 24 kts | 69° |
| 2026-04-16 15:15 | 50.04010 | 8.51888 | 346 ft | 25 kts | 69° |
| 2026-04-16 15:15 | 50.04072 | 8.52142 | 351 ft | 26 kts | 69° |
| 2026-04-16 15:15 | 50.04136 | 8.52405 | 347 ft | 26 kts | 70° |
| 2026-04-16 15:15 | 50.04199 | 8.52676 | 350 ft | 27 kts | 69° |
| 2026-04-16 15:16 | 50.04267 | 8.52952 | 346 ft | 28 kts | 69° |
| 2026-04-16 15:16 | 50.04335 | 8.53234 | 349 ft | 28 kts | 70° |
| 2026-04-16 15:16 | 50.04399 | 8.53521 | 355 ft | 29 kts | 79° |
| 2026-04-16 15:16 | 50.04417 | 8.53831 | 346 ft | 29 kts | 86° |
| 2026-04-16 15:17 | 50.04438 | 8.54147 | 346 ft | 30 kts | 85° |
| 2026-04-16 15:17 | 50.04451 | 8.54468 | 346 ft | 30 kts | 96° |
| 2026-04-16 15:17 | 50.04408 | 8.54650 | 350 ft | 8 kts | 124° |
| 2026-04-16 15:17 | 50.04370 | 8.54713 | 346 ft | 8 kts | 138° |
| 2026-04-16 15:18 | 50.04319 | 8.54767 | 349 ft | 9 kts | 156° |
| 2026-04-16 15:18 | 50.04254 | 8.54808 | 353 ft | 11 kts | 158° |
| 2026-04-16 15:18 | 50.04180 | 8.54849 | 349 ft | 12 kts | 163° |
| 2026-04-16 15:18 | 50.04099 | 8.54892 | 346 ft | 13 kts | 159° |
| 2026-04-16 15:19 | 50.04022 | 8.54966 | 348 ft | 13 kts | 115° |
| 2026-04-16 15:19 | 50.04041 | 8.55109 | 350 ft | 15 kts | 67° |
| 2026-04-16 15:19 | 50.04078 | 8.55263 | 347 ft | 16 kts | 70° |
| 2026-04-16 15:19 | 50.04118 | 8.55435 | 349 ft | 18 kts | 70° |
| 2026-04-16 15:20 | 50.04163 | 8.55624 | 348 ft | 19 kts | 70° |
| 2026-04-16 15:20 | 50.04212 | 8.55824 | 349 ft | 20 kts | 69° |
| 2026-04-16 15:20 | 50.04263 | 8.56034 | 349 ft | 21 kts | 62° |
| 2026-04-16 15:20 | 50.04381 | 8.56036 | 346 ft | 17 kts | 342° |
| 2026-04-16 15:21 | 50.04440 | 8.56075 | 350 ft | 11 kts | 61° |
| 2026-04-16 15:21 | 50.04470 | 8.56193 | 346 ft | 13 kts | 70° |
| 2026-04-16 15:21 | 50.04503 | 8.56330 | 353 ft | 14 kts | 69° |
| 2026-04-16 15:21 | 50.04565 | 8.56450 | 347 ft | 15 kts | 28° |
| 2026-04-16 15:22 | 50.04649 | 8.56510 | 355 ft | 11 kts | 25° |
| 2026-04-16 15:22 | 50.04715 | 8.56573 | 347 ft | 7 kts | 52° |
| 2026-04-16 15:22 | 50.04703 | 8.56648 | 347 ft | 8 kts | 118° |
| 2026-04-16 15:22 | 50.04689 | 8.56695 | 346 ft | 0 kts | 114° |
| 2026-04-16 15:23 | 50.04690 | 8.56695 | 348 ft | 0 kts | 114° |